Time;durP1;ratioP1;P1;durP2;ratioP2;P2;SDS_P1;SDS_P2;PMS_P1;PMS_P2;Temp;Humidity;BMP_temperature;BMP_pressure;BME280_temperature;BME280_humidity;BME280_pressure;Samples;Min_cycle;Max_cycle;Signal;HPM_P1;HPM_P2
2022/11/11 00:01:12;;;;;;;9.40;6.43;;;10.30;99.90;;;;;;10078964;28;20029;-63
2022/11/11 00:06:12;;;;;;;13.13;7.45;;;10.20;99.90;;;;;;10068489;28;20033;-63
2022/11/11 00:11:08;;;;;;;14.80;7.32;;;10.20;99.90;;;;;;10081317;28;20052;-63
2022/11/11 00:16:11;;;;;;;14.75;8.15;;;10.30;99.90;;;;;;10083851;28;20447;-62
2022/11/11 00:26:12;;;;;;;15.15;8.48;;;10.30;99.90;;;;;;10069445;28;20044;-64
2022/11/11 00:31:09;;;;;;;14.52;7.93;;;10.30;99.90;;;;;;10080550;28;20557;-63
2022/11/11 00:36:00;;;;;;;14.02;6.32;;;10.50;99.90;;;;;;10077995;28;20444;-64
2022/11/11 00:40:50;;;;;;;8.85;6.03;;;10.40;99.90;;;;;;10075568;28;20106;-65
2022/11/11 00:45:41;;;;;;;11.25;7.13;;;10.40;99.90;;;;;;10079158;28;20029;-66
2022/11/11 00:55:41;;;;;;;14.48;7.22;;;10.50;99.90;;;;;;10077870;28;20078;-64
2022/11/11 01:00:31;;;;;;;21.52;11.05;;;10.40;99.90;;;;;;10068587;28;20071;-62
2022/11/11 01:05:22;;;;;;;16.63;7.47;;;10.40;99.90;;;;;;10068804;28;20090;-63
2022/11/11 01:10:36;;;;;;;12.35;7.38;;;10.50;99.90;;;;;;10070962;28;20513;-62
2022/11/11 01:15:23;;;;;;;10.98;5.75;;;10.60;99.90;;;;;;10081397;28;20032;-63
2022/11/11 01:20:14;;;;;;;10.43;4.75;;;10.50;99.90;;;;;;10088716;28;20966;-63
2022/11/11 01:25:05;;;;;;;10.32;5.50;;;10.40;99.90;;;;;;10072132;28;20484;-64
2022/11/11 01:29:55;;;;;;;10.80;5.40;;;10.30;99.90;;;;;;10079194;28;20036;-63
2022/11/11 01:34:46;;;;;;;11.70;5.40;;;10.30;99.90;;;;;;10081708;28;20514;-64
2022/11/11 01:39:37;;;;;;;9.48;5.53;;;10.30;99.90;;;;;;10075953;28;20028;-63
2022/11/11 01:45:00;;;;;;;14.23;5.38;;;10.20;99.90;;;;;;10084701;28;20025;-64
2022/11/11 01:49:57;;;;;;;8.52;4.68;;;10.00;99.90;;;;;;10044426;28;20082;-63
2022/11/11 01:54:54;;;;;;;7.53;4.03;;;9.80;99.90;;;;;;10075776;28;20552;-64
2022/11/11 01:59:49;;;;;;;7.50;3.78;;;9.80;99.90;;;;;;10083441;28;20092;-64
2022/11/11 02:09:51;;;;;;;7.25;3.95;;;9.90;99.90;;;;;;10077789;28;20072;-65
2022/11/11 02:14:48;;;;;;;6.57;3.95;;;9.80;99.90;;;;;;10071880;28;20417;-65
2022/11/11 02:20:01;;;;;;;7.32;4.05;;;9.60;99.90;;;;;;10076788;28;20122;-64
2022/11/11 02:24:53;;;;;;;5.97;3.45;;;9.50;99.90;;;;;;10066311;28;20033;-63
2022/11/11 02:29:47;;;;;;;5.20;3.58;;;9.20;99.90;;;;;;10071004;28;20113;-64
2022/11/11 02:34:38;;;;;;;6.50;4.40;;;9.30;99.90;;;;;;10074330;28;20053;-65
2022/11/11 02:39:29;;;;;;;6.35;3.72;;;9.20;99.90;;;;;;10069678;28;20550;-64
2022/11/11 02:44:20;;;;;;;6.00;3.78;;;9.40;99.90;;;;;;10077269;28;20228;-65
2022/11/11 02:49:10;;;;;;;7.50;4.07;;;9.40;99.90;;;;;;10073406;28;20332;-64
2022/11/11 02:54:01;;;;;;;6.53;4.07;;;9.50;99.90;;;;;;10067970;28;20036;-65
2022/11/11 02:58:52;;;;;;;5.30;3.88;;;9.50;99.90;;;;;;10067811;28;20021;-64
2022/11/11 03:03:42;;;;;;;9.70;3.75;;;9.50;99.90;;;;;;10074564;28;20414;-64
2022/11/11 03:08:33;;;;;;;8.60;4.32;;;9.60;99.90;;;;;;10081437;28;20025;-63
2022/11/11 03:13:23;;;;;;;7.45;4.30;;;9.70;99.90;;;;;;10080265;28;20044;-63
2022/11/11 03:18:14;;;;;;;7.75;3.60;;;9.50;99.90;;;;;;10089759;28;20066;-63
2022/11/11 03:23:11;;;;;;;9.38;4.32;;;9.50;99.90;;;;;;10077251;28;20400;-63
2022/11/11 03:28:01;;;;;;;8.50;4.07;;;9.50;99.90;;;;;;10071396;28;20855;-63
2022/11/11 03:32:52;;;;;;;6.40;3.95;;;9.50;99.90;;;;;;10076807;28;20377;-63
2022/11/11 03:42:51;;;;;;;6.30;4.13;;;9.60;99.90;;;;;;10087116;28;20048;-63
2022/11/11 03:47:42;;;;;;;4.22;3.08;;;9.40;99.90;;;;;;10084343;28;20032;-64
2022/11/11 03:52:32;;;;;;;5.13;3.05;;;9.40;99.90;;;;;;10079924;28;20029;-63
2022/11/11 03:57:32;;;;;;;5.18;2.95;;;9.30;99.90;;;;;;10077880;28;20017;-63
2022/11/11 04:17:51;;;;;;;4.72;3.05;;;9.40;99.90;;;;;;10085843;28;20549;-63
2022/11/11 04:22:42;;;;;;;5.90;3.15;;;9.40;99.90;;;;;;10077121;28;20047;-62
2022/11/11 04:27:32;;;;;;;8.95;3.50;;;9.20;99.90;;;;;;10055260;28;20030;-62
2022/11/11 04:32:37;;;;;;;6.18;3.47;;;9.00;99.90;;;;;;10075947;28;20094;-63
2022/11/11 04:37:31;;;;;;;5.45;2.72;;;9.20;99.90;;;;;;10077400;28;20033;-63
2022/11/11 04:42:22;;;;;;;8.10;3.90;;;9.20;99.90;;;;;;10081589;28;20577;-63
2022/11/11 04:47:13;;;;;;;4.40;2.45;;;8.90;99.90;;;;;;10079083;28;20090;-62
2022/11/11 04:57:13;;;;;;;5.38;3.22;;;9.00;99.90;;;;;;10072627;28;20028;-62
2022/11/11 05:12:22;;;;;;;7.47;4.07;;;9.30;99.90;;;;;;10083207;28;20044;-65
2022/11/11 05:22:30;;;;;;;4.82;2.92;;;9.40;99.90;;;;;;10069883;28;20399;-63
2022/11/11 05:27:21;;;;;;;6.53;3.58;;;9.30;99.90;;;;;;10077922;28;20266;-63
2022/11/11 05:32:16;;;;;;;5.90;3.33;;;9.20;99.90;;;;;;10075794;28;20045;-63
2022/11/11 05:37:07;;;;;;;4.18;2.88;;;9.30;99.90;;;;;;10065672;28;20064;-63
2022/11/11 05:41:58;;;;;;;6.15;3.25;;;9.30;99.90;;;;;;10076221;28;20400;-63
2022/11/11 05:46:48;;;;;;;4.65;3.83;;;9.10;99.90;;;;;;10081888;28;20103;-63
2022/11/11 05:51:39;;;;;;;5.95;3.28;;;9.10;99.90;;;;;;10067706;28;20067;-63
2022/11/11 05:56:29;;;;;;;3.65;2.88;;;9.10;99.90;;;;;;10059901;28;20539;-62
2022/11/11 06:01:20;;;;;;;6.38;2.80;;;9.20;99.90;;;;;;10077844;28;20111;-62
2022/11/11 06:06:11;;;;;;;4.90;3.00;;;9.20;99.90;;;;;;10069914;28;20210;-63
2022/11/11 06:11:02;;;;;;;3.90;2.65;;;9.10;99.90;;;;;;10062383;28;20033;-63
2022/11/11 06:15:55;;;;;;;4.38;2.78;;;9.30;99.90;;;;;;10073474;28;20029;-63
2022/11/11 06:20:55;;;;;;;4.85;2.50;;;9.20;99.90;;;;;;10081336;28;20204;-62
2022/11/11 06:30:55;;;;;;;5.93;3.22;;;9.10;99.90;;;;;;10066867;28;20040;-64
2022/11/11 06:35:45;;;;;;;8.60;4.55;;;9.10;99.90;;;;;;10076076;28;20063;-62
2022/11/11 06:40:36;;;;;;;5.05;3.38;;;9.10;99.90;;;;;;10065745;28;20033;-63
2022/11/11 06:45:29;;;;;;;8.80;4.18;;;9.10;99.90;;;;;;10083537;28;20059;-64
2022/11/11 06:50:19;;;;;;;8.77;3.63;;;9.20;99.90;;;;;;10080695;28;20065;-62
2022/11/11 06:55:10;;;;;;;10.68;5.20;;;9.30;99.90;;;;;;10066373;28;20650;-63
2022/11/11 07:00:03;;;;;;;8.13;4.15;;;9.20;99.90;;;;;;10072697;28;20083;-65
2022/11/11 07:04:53;;;;;;;6.57;3.70;;;9.00;99.90;;;;;;10072043;28;20045;-63
2022/11/11 07:09:44;;;;;;;6.22;3.20;;;9.20;99.90;;;;;;10079003;28;20146;-63
2022/11/11 07:14:34;;;;;;;8.48;3.30;;;9.30;99.90;;;;;;10072427;28;20037;-63
2022/11/11 07:19:25;;;;;;;7.90;4.40;;;9.40;99.90;;;;;;10080286;28;20029;-63
2022/11/11 07:24:16;;;;;;;5.28;3.33;;;9.20;99.90;;;;;;10074110;28;20385;-63
2022/11/11 07:29:07;;;;;;;4.20;2.85;;;9.30;99.90;;;;;;10074675;28;20100;-63
2022/11/11 07:33:58;;;;;;;8.40;2.97;;;9.30;99.90;;;;;;10087464;28;20484;-65
2022/11/11 07:38:48;;;;;;;6.57;3.83;;;9.40;99.90;;;;;;10082517;28;20037;-62
2022/11/11 07:43:39;;;;;;;4.45;2.53;;;9.40;99.90;;;;;;10088552;28;20037;-63
2022/11/11 07:48:29;;;;;;;4.97;2.65;;;9.30;99.90;;;;;;10089231;28;20112;-63
2022/11/11 07:53:20;;;;;;;4.05;2.38;;;9.40;99.90;;;;;;10076112;28;20029;-64
2022/11/11 07:58:11;;;;;;;5.53;2.97;;;9.40;99.90;;;;;;10087469;28;20033;-64
2022/11/11 08:03:01;;;;;;;3.83;2.53;;;9.00;99.90;;;;;;10089226;28;20399;-64
2022/11/11 08:07:52;;;;;;;4.78;2.78;;;9.00;99.90;;;;;;10084884;28;20021;-64
2022/11/11 08:17:52;;;;;;;8.23;4.18;;;9.40;99.90;;;;;;10085175;28;20068;-63
2022/11/11 08:22:43;;;;;;;6.60;3.50;;;9.60;99.90;;;;;;10073601;28;20051;-64
2022/11/11 08:27:34;;;;;;;6.28;4.00;;;9.60;99.90;;;;;;10082774;28;20407;-64
2022/11/11 08:32:25;;;;;;;11.00;3.75;;;9.40;99.90;;;;;;10057020;28;20029;-64
2022/11/11 08:37:15;;;;;;;5.85;3.10;;;9.40;99.90;;;;;;10082613;28;20034;-63
2022/11/11 08:42:06;;;;;;;4.75;2.95;;;9.60;99.90;;;;;;10079746;28;20036;-63
2022/11/11 08:46:57;;;;;;;7.05;3.65;;;9.90;99.90;;;;;;10075584;28;20552;-64
2022/11/11 08:51:47;;;;;;;4.97;3.67;;;10.00;99.90;;;;;;10077981;28;20048;-63
2022/11/11 08:56:39;;;;;;;5.45;3.22;;;10.00;99.90;;;;;;10079659;28;20193;-64
2022/11/11 09:01:29;;;;;;;4.75;3.53;;;10.00;99.90;;;;;;10080349;28;20118;-64
2022/11/11 09:06:22;;;;;;;4.53;3.05;;;10.10;99.90;;;;;;10086722;28;20095;-65
2022/11/11 09:11:13;;;;;;;4.55;3.15;;;10.20;99.90;;;;;;10083917;28;20467;-62
2022/11/11 09:16:04;;;;;;;4.82;3.30;;;10.30;99.90;;;;;;10075100;28;21105;-63
2022/11/11 09:20:58;;;;;;;7.75;4.00;;;10.30;99.90;;;;;;10080442;28;20032;-64
2022/11/11 09:25:49;;;;;;;6.97;4.55;;;10.20;99.90;;;;;;10066216;28;20052;-63
2022/11/11 09:30:40;;;;;;;6.07;3.80;;;10.10;99.90;;;;;;10079597;28;20033;-64
2022/11/11 09:35:30;;;;;;;6.80;4.20;;;10.20;99.90;;;;;;10070023;28;20053;-65
2022/11/11 09:40:23;;;;;;;7.22;3.50;;;10.20;99.90;;;;;;10082312;28;20424;-65
2022/11/11 09:45:18;;;;;;;8.38;3.53;;;10.30;99.90;;;;;;10079169;28;20104;-63
2022/11/11 09:50:12;;;;;;;9.80;4.57;;;10.10;99.90;;;;;;10066414;28;20091;-62
2022/11/11 09:55:17;;;;;;;6.20;4.45;;;10.00;99.90;;;;;;10067631;28;20042;-63
2022/11/11 10:00:21;;;;;;;5.83;4.30;;;9.80;99.90;;;;;;10077735;28;20025;-61
2022/11/11 10:05:16;;;;;;;8.45;4.68;;;9.70;99.90;;;;;;10076588;28;20071;-60
2022/11/11 10:10:26;;;;;;;13.57;5.28;;;9.90;99.90;;;;;;10070477;28;20124;-60
2022/11/11 10:15:17;;;;;;;8.30;4.43;;;10.00;99.90;;;;;;10073737;28;20067;-63
2022/11/11 10:20:17;;;;;;;7.05;4.28;;;9.90;99.90;;;;;;10074997;28;20100;-62
2022/11/11 10:25:11;;;;;;;7.60;4.63;;;10.20;99.90;;;;;;10067683;28;20099;-63
2022/11/11 10:30:13;;;;;;;7.32;3.92;;;10.30;99.90;;;;;;10071000;28;20055;-62
2022/11/11 10:35:31;;;;;;;9.35;5.15;;;10.50;99.90;;;;;;10067874;28;20534;-60
2022/11/11 10:40:28;;;;;;;6.95;4.68;;;10.50;99.90;;;;;;10079534;28;20039;-62
2022/11/11 10:45:44;;;;;;;9.27;5.43;;;10.50;99.90;;;;;;10071062;28;20060;-62
2022/11/11 10:50:44;;;;;;;9.90;6.05;;;10.70;99.90;;;;;;10080882;28;20178;-61
2022/11/11 10:55:58;;;;;;;6.75;4.28;;;11.20;99.90;;;;;;10080331;28;20119;-61
2022/11/11 11:00:51;;;;;;;7.07;4.90;;;11.40;99.90;;;;;;10073812;28;20044;-61
2022/11/11 11:06:02;;;;;;;9.10;4.32;;;11.20;99.90;;;;;;10079962;28;20439;-61
2022/11/11 11:11:01;;;;;;;6.25;3.88;;;11.00;99.90;;;;;;10077492;28;20025;-62
2022/11/11 11:15:59;;;;;;;5.93;4.40;;;11.00;99.90;;;;;;10062167;28;20069;-61
2022/11/11 11:21:01;;;;;;;6.18;4.13;;;10.60;99.90;;;;;;10057140;28;20029;-63
2022/11/11 11:25:54;;;;;;;7.18;4.30;;;10.50;99.90;;;;;;10071780;28;20029;-61
2022/11/11 11:30:58;;;;;;;4.82;3.50;;;10.50;99.90;;;;;;10080898;28;20040;-62
2022/11/11 11:35:49;;;;;;;7.22;4.53;;;10.90;99.90;;;;;;10081446;28;20435;-61
2022/11/11 11:40:57;;;;;;;8.15;5.10;;;11.00;99.90;;;;;;10081133;28;20090;-62
2022/11/11 11:45:55;;;;;;;9.13;5.70;;;10.90;99.90;;;;;;10077229;28;20383;-64
2022/11/11 11:50:51;;;;;;;11.05;5.93;;;11.00;99.90;;;;;;10064048;28;20032;-60
2022/11/11 11:55:47;;;;;;;7.40;4.75;;;11.10;99.90;;;;;;10075906;28;20045;-61
2022/11/11 12:00:42;;;;;;;;;;;11.30;99.90;;;;;;10088073;28;20044;-61
2022/11/11 12:05:42;;;;;;;7.90;4.63;;;11.20;99.90;;;;;;10076584;28;19994;-62
2022/11/11 12:10:45;;;;;;;10.18;5.82;;;11.10;99.90;;;;;;10076000;28;20136;-62
2022/11/11 12:15:42;;;;;;;8.38;4.95;;;11.20;99.90;;;;;;10078126;28;20048;-63
2022/11/11 12:20:46;;;;;;;67.32;36.30;;;11.30;99.90;;;;;;10073587;28;20029;-63
2022/11/11 12:26:00;;;;;;;39.78;21.33;;;11.40;99.90;;;;;;10072399;28;20083;-63
2022/11/11 12:31:14;;;;;;;16.70;9.20;;;11.60;99.90;;;;;;10060251;28;20150;-62
2022/11/11 12:36:35;;;;;;;11.98;6.88;;;11.80;99.90;;;;;;10068327;28;20052;-62
2022/11/11 12:41:49;;;;;;;12.15;7.55;;;11.70;99.90;;;;;;10072013;28;20227;-62
2022/11/11 12:47:14;;;;;;;12.77;7.05;;;11.50;99.90;;;;;;10071377;28;20125;-65
2022/11/11 12:52:24;;;;;;;10.48;6.43;;;11.40;99.90;;;;;;10072179;28;20059;-61
2022/11/11 12:57:32;;;;;;;10.27;5.43;;;11.70;99.90;;;;;;10063154;28;20033;-62
2022/11/11 13:02:29;;;;;;;11.10;7.55;;;11.70;99.90;;;;;;10074759;28;20028;-62
2022/11/11 13:07:56;;;;;;;13.57;7.20;;;11.80;99.90;;;;;;10075263;28;20515;-62
2022/11/11 13:13:09;;;;;;;12.95;6.30;;;11.70;99.90;;;;;;10078723;28;20052;-63
2022/11/11 13:18:01;;;;;;;10.70;6.05;;;11.70;99.90;;;;;;10074658;28;20024;-62
2022/11/11 13:22:52;;;;;;;9.50;6.60;;;11.50;99.90;;;;;;10076818;28;20040;-63
2022/11/11 13:27:54;;;;;;;11.23;6.97;;;11.50;99.90;;;;;;10063675;28;20377;-63
2022/11/11 13:32:53;;;;;;;14.32;8.25;;;11.50;99.90;;;;;;10069450;28;20057;-63
2022/11/11 13:37:45;;;;;;;11.50;6.72;;;11.40;99.90;;;;;;10077753;28;20079;-62
2022/11/11 13:42:41;;;;;;;11.10;6.15;;;11.50;99.90;;;;;;10081381;28;20051;-65
2022/11/11 13:47:46;;;;;;;8.25;6.68;;;11.50;99.90;;;;;;10088434;28;20029;-63
2022/11/11 13:52:43;;;;;;;12.15;6.45;;;11.70;99.90;;;;;;10082948;28;20048;-62
2022/11/11 13:57:47;;;;;;;12.02;6.35;;;11.80;99.90;;;;;;10084939;28;20075;-64
2022/11/11 14:02:38;;;;;;;10.88;6.72;;;11.80;99.90;;;;;;10078993;28;20570;-63
2022/11/11 14:07:46;;;;;;;13.88;8.13;;;11.90;99.90;;;;;;10073845;28;20025;-64
2022/11/11 14:12:39;;;;;;;13.18;8.38;;;11.90;99.90;;;;;;10080441;28;20036;-63
2022/11/11 14:17:30;;;;;;;14.40;8.73;;;12.10;99.90;;;;;;10068791;28;20089;-65
2022/11/11 14:22:30;;;;;;;13.63;7.93;;;11.90;99.90;;;;;;10080525;28;20071;-65
2022/11/11 14:27:31;;;;;;;13.52;7.03;;;11.70;99.90;;;;;;10068406;28;20025;-63
2022/11/11 14:32:36;;;;;;;148.95;76.70;;;11.70;99.90;;;;;;10080769;28;20414;-62
2022/11/11 14:37:56;;;;;;;39.50;23.58;;;11.80;99.90;;;;;;10046522;28;20041;-64
2022/11/11 14:42:47;;;;;;;15.95;9.88;;;11.90;99.90;;;;;;10070861;28;20029;-64
2022/11/11 14:47:41;;;;;;;13.32;7.75;;;11.80;99.90;;;;;;10076166;28;20500;-65
2022/11/11 14:52:36;;;;;;;10.95;7.75;;;11.70;99.90;;;;;;10071717;28;20458;-65
2022/11/11 14:57:53;;;;;;;14.25;7.55;;;11.50;99.90;;;;;;10066915;28;20029;-64
2022/11/11 15:02:57;;;;;;;13.95;7.03;;;11.30;99.90;;;;;;10080722;28;20063;-65
2022/11/11 15:08:10;;;;;;;16.08;8.52;;;11.10;99.90;;;;;;10079397;28;20048;-65
2022/11/11 15:13:13;;;;;;;15.75;8.20;;;11.10;99.90;;;;;;10074968;28;20033;-66
2022/11/11 15:18:34;;;;;;;14.50;7.97;;;11.00;99.90;;;;;;10075757;28;20072;-64
2022/11/11 15:23:40;;;;;;;13.13;7.45;;;11.00;99.90;;;;;;10077248;28;20056;-66
2022/11/11 15:28:48;;;;;;;16.08;8.20;;;10.90;99.90;;;;;;10078306;28;20045;-64
2022/11/11 15:33:45;;;;;;;18.15;9.38;;;10.80;99.90;;;;;;10085196;28;20041;-66
2022/11/11 15:38:36;;;;;;;18.23;10.38;;;10.80;99.90;;;;;;10079340;28;20025;-64
2022/11/11 15:43:30;;;;;;;19.85;9.93;;;10.70;99.90;;;;;;10089327;28;20032;-64
2022/11/11 15:48:42;;;;;;;15.57;8.32;;;10.70;99.90;;;;;;10084985;28;20021;-65
2022/11/11 15:53:33;;;;;;;22.33;10.80;;;10.80;99.90;;;;;;10073036;28;20349;-65
2022/11/11 15:58:27;;;;;;;14.00;9.45;;;10.70;99.90;;;;;;10081610;28;20025;-65
2022/11/11 16:03:41;;;;;;;16.73;9.95;;;10.70;99.90;;;;;;10070114;28;20051;-65
2022/11/11 16:08:32;;;;;;;21.48;9.85;;;10.60;99.90;;;;;;10067341;28;20489;-66
2022/11/11 16:13:31;;;;;;;16.77;9.48;;;10.70;99.90;;;;;;10076557;28;20037;-65
2022/11/11 16:18:30;;;;;;;23.38;11.88;;;10.70;99.90;;;;;;10064466;28;20450;-65
2022/11/11 16:23:21;;;;;;;21.10;11.32;;;10.60;99.90;;;;;;10072218;28;21297;-65
2022/11/11 16:28:13;;;;;;;18.73;10.05;;;10.60;99.90;;;;;;10075733;28;20498;-65
2022/11/11 16:33:04;;;;;;;18.77;9.93;;;10.60;99.90;;;;;;10064956;28;20049;-65
2022/11/11 16:37:55;;;;;;;22.05;10.80;;;10.60;99.90;;;;;;10054058;28;20034;-67
2022/11/11 16:42:46;;;;;;;18.75;9.55;;;10.70;99.90;;;;;;10076249;28;20033;-66
2022/11/11 16:47:41;;;;;;;21.95;12.00;;;10.70;99.90;;;;;;10067860;28;20033;-66
2022/11/11 16:52:45;;;;;;;20.17;10.83;;;10.70;99.90;;;;;;10063698;28;20558;-65
2022/11/11 16:57:42;;;;;;;28.42;12.52;;;10.80;99.90;;;;;;10066193;28;20513;-66
2022/11/11 17:02:33;;;;;;;19.15;9.88;;;10.80;99.90;;;;;;10054934;28;20027;-65
2022/11/11 17:07:41;;;;;;;23.08;10.48;;;10.80;99.90;;;;;;10068268;28;20204;-65
2022/11/11 17:12:36;;;;;;;20.15;11.55;;;10.80;99.90;;;;;;10073996;28;20487;-65
2022/11/11 17:17:29;;;;;;;18.73;9.50;;;10.80;99.90;;;;;;10067949;28;20617;-64
2022/11/11 17:22:20;;;;;;;25.25;13.48;;;10.80;99.90;;;;;;10056732;28;20045;-64
2022/11/11 17:27:10;;;;;;;18.80;10.10;;;10.80;99.90;;;;;;10050410;28;20045;-64
2022/11/11 17:32:01;;;;;;;20.75;10.07;;;10.90;99.90;;;;;;10052578;28;20041;-66
2022/11/11 17:36:52;;;;;;;20.02;10.25;;;10.80;99.90;;;;;;10054780;28;20046;-64
2022/11/11 17:41:42;;;;;;;22.35;11.63;;;10.80;99.90;;;;;;10069963;28;20029;-66
2022/11/11 17:46:33;;;;;;;22.30;10.80;;;10.80;99.90;;;;;;10076642;28;20491;-65
2022/11/11 17:51:24;;;;;;;23.13;10.25;;;10.80;99.90;;;;;;10068811;28;20041;-65
2022/11/11 17:56:15;;;;;;;22.08;10.35;;;10.80;99.90;;;;;;10068480;28;20136;-64
2022/11/11 18:01:13;;;;;;;19.83;11.40;;;10.90;99.90;;;;;;10069031;28;20117;-67
2022/11/11 18:06:04;;;;;;;26.48;10.25;;;10.80;99.90;;;;;;10077573;28;20021;-65
2022/11/11 18:10:59;;;;;;;19.65;10.55;;;10.90;99.90;;;;;;10076643;28;20033;-66
2022/11/11 18:15:50;;;;;;;26.83;12.90;;;10.80;99.90;;;;;;10087089;28;20376;-66
2022/11/11 18:20:41;;;;;;;23.40;11.75;;;10.80;99.90;;;;;;10080223;28;20021;-66
2022/11/11 18:25:31;;;;;;;20.90;10.30;;;10.70;99.90;;;;;;10067153;28;20060;-64
2022/11/11 18:30:22;;;;;;;19.45;10.65;;;10.70;99.90;;;;;;10081742;28;20403;-66
2022/11/11 18:35:13;;;;;;;20.00;9.48;;;10.60;99.90;;;;;;10080674;28;20133;-66
2022/11/11 18:40:04;;;;;;;22.83;11.50;;;10.60;99.90;;;;;;10086860;28;20049;-65
2022/11/11 18:44:55;;;;;;;21.52;11.65;;;10.70;99.90;;;;;;10072218;28;20034;-64
2022/11/11 18:49:46;;;;;;;23.67;11.68;;;10.70;99.90;;;;;;10063883;28;20104;-66
2022/11/11 18:54:36;;;;;;;24.65;11.82;;;10.80;99.90;;;;;;10080539;28;20035;-65
2022/11/11 18:59:27;;;;;;;23.25;10.95;;;10.70;99.90;;;;;;10079499;28;20028;-65
2022/11/11 19:04:17;;;;;;;24.05;12.20;;;10.80;99.90;;;;;;10080979;28;20407;-65
2022/11/11 19:09:10;;;;;;;24.52;10.93;;;10.80;99.90;;;;;;10085508;28;20364;-65
2022/11/11 19:14:01;;;;;;;23.42;10.93;;;10.80;99.90;;;;;;10079602;28;20025;-65
2022/11/11 19:18:53;;;;;;;22.58;11.48;;;10.70;99.90;;;;;;10091181;28;20483;-64
2022/11/11 19:23:45;;;;;;;18.98;10.55;;;10.70;99.90;;;;;;10078691;28;20028;-65
2022/11/11 19:28:37;;;;;;;26.98;12.88;;;10.70;99.90;;;;;;10066096;28;20030;-66
2022/11/11 19:33:28;;;;;;;22.15;10.98;;;10.60;99.90;;;;;;10074021;28;20552;-64
2022/11/11 19:38:19;;;;;;;21.60;10.93;;;10.70;99.90;;;;;;10071871;28;20117;-66
2022/11/11 19:43:19;;;;;;;22.15;11.88;;;10.60;99.90;;;;;;10081813;28;20037;-65
2022/11/11 19:48:11;;;;;;;20.55;10.38;;;10.60;99.90;;;;;;10085854;28;20140;-67
2022/11/11 19:53:01;;;;;;;22.15;10.65;;;10.60;99.90;;;;;;10088534;28;20146;-66
2022/11/11 19:57:52;;;;;;;19.67;10.35;;;10.60;99.90;;;;;;10078930;28;20116;-67
2022/11/11 20:02:43;;;;;;;21.40;10.45;;;10.50;99.90;;;;;;10088864;28;20549;-65
2022/11/11 20:07:34;;;;;;;24.13;10.95;;;10.50;99.90;;;;;;10081793;28;20032;-66
2022/11/11 20:12:25;;;;;;;19.20;10.52;;;10.50;99.90;;;;;;10087295;28;20435;-66
2022/11/11 20:17:16;;;;;;;24.48;10.52;;;10.40;99.90;;;;;;10086578;28;20032;-66
2022/11/11 20:22:09;;;;;;;19.13;10.60;;;10.50;99.90;;;;;;10080173;28;20044;-66
2022/11/11 20:27:00;;;;;;;21.50;9.60;;;10.50;99.90;;;;;;10075373;28;20029;-65
2022/11/11 20:31:51;;;;;;;25.23;12.18;;;10.50;99.90;;;;;;10076807;28;20037;-66
2022/11/11 20:36:41;;;;;;;30.75;14.82;;;10.50;99.90;;;;;;10078209;28;20049;-66
2022/11/11 20:41:34;;;;;;;22.50;11.43;;;10.50;99.90;;;;;;10072483;28;20509;-66
2022/11/11 20:46:25;;;;;;;23.85;12.25;;;10.50;99.90;;;;;;10072133;28;20033;-65
2022/11/11 20:51:19;;;;;;;28.70;13.55;;;10.50;99.90;;;;;;10065520;28;20036;-66
2022/11/11 20:56:15;;;;;;;24.05;11.70;;;10.40;99.90;;;;;;10068041;28;20781;-67
2022/11/11 21:01:15;;;;;;;19.98;10.45;;;10.40;99.90;;;;;;10071679;28;20028;-67
2022/11/11 21:06:11;;;;;;;23.15;10.48;;;10.30;99.90;;;;;;10061630;28;20035;-66
2022/11/11 21:11:02;;;;;;;;;;;10.40;99.90;;;;;;10068123;28;20041;-65
2022/11/11 21:16:00;;;;;;;22.17;9.13;;;10.40;99.90;;;;;;10065806;28;19920;-65
2022/11/11 21:20:51;;;;;;;18.90;9.95;;;10.40;99.90;;;;;;10081025;28;20040;-66
2022/11/11 21:25:41;;;;;;;22.10;11.00;;;10.40;99.90;;;;;;10055824;28;20034;-66
2022/11/11 21:30:32;;;;;;;20.75;11.15;;;10.40;99.90;;;;;;10068212;28;20033;-67
2022/11/11 21:35:23;;;;;;;24.10;10.52;;;10.40;99.90;;;;;;10068876;28;20160;-64
2022/11/11 21:40:14;;;;;;;27.65;10.90;;;10.30;99.90;;;;;;10076568;28;20044;-67
2022/11/11 21:45:05;;;;;;;19.08;9.95;;;10.30;99.90;;;;;;10074616;28;20515;-66
2022/11/11 21:49:56;;;;;;;20.20;10.25;;;10.30;99.90;;;;;;10065997;28;20117;-65
2022/11/11 21:54:46;;;;;;;21.95;11.07;;;10.30;99.90;;;;;;10059188;28;20124;-65
2022/11/11 21:59:37;;;;;;;22.40;9.77;;;10.40;99.90;;;;;;10067584;28;20022;-66
2022/11/11 22:04:28;;;;;;;19.02;9.85;;;10.40;99.90;;;;;;10064266;28;20029;-64
2022/11/11 22:09:18;;;;;;;19.65;9.80;;;10.30;99.90;;;;;;10070753;28;20045;-64
2022/11/11 22:14:11;;;;;;;21.45;9.15;;;10.20;99.90;;;;;;10064964;28;20439;-64
2022/11/11 22:19:04;;;;;;;18.38;9.13;;;10.10;99.90;;;;;;10064365;28;20018;-64
2022/11/11 22:24:00;;;;;;;21.88;9.75;;;10.10;99.90;;;;;;10067568;28;20026;-64
2022/11/11 22:28:51;;;;;;;;;;;10.10;99.90;;;;;;10063643;28;20044;-65
2022/11/11 22:33:44;;;;;;;15.85;8.25;;;10.20;99.90;;;;;;10076256;28;20395;-65
2022/11/11 22:38:34;;;;;;;17.58;8.70;;;10.10;99.90;;;;;;10069929;28;20193;-67
2022/11/11 22:43:25;;;;;;;15.38;7.90;;;10.10;99.90;;;;;;10082457;28;20021;-65
2022/11/11 22:48:15;;;;;;;16.70;8.15;;;10.20;99.90;;;;;;10074815;28;20033;-66
2022/11/11 22:53:06;;;;;;;15.93;7.43;;;10.10;99.90;;;;;;10072589;28;20107;-66
2022/11/11 22:57:57;;;;;;;12.48;7.85;;;10.10;99.90;;;;;;10059937;28;20461;-65
2022/11/11 23:02:47;;;;;;;13.85;7.78;;;10.00;99.90;;;;;;10080643;28;20566;-65
2022/11/11 23:07:38;;;;;;;15.10;8.25;;;10.00;99.90;;;;;;10076449;28;20442;-64
2022/11/11 23:12:29;;;;;;;15.23;7.35;;;10.10;99.90;;;;;;10078640;28;20033;-65
2022/11/11 23:17:19;;;;;;;11.77;6.82;;;10.00;99.90;;;;;;10070409;28;20025;-65
2022/11/11 23:22:10;;;;;;;14.63;6.55;;;9.80;99.90;;;;;;10074130;28;20033;-65
2022/11/11 23:27:01;;;;;;;12.93;7.07;;;9.90;99.90;;;;;;10067900;28;20356;-64
2022/11/11 23:31:51;;;;;;;12.15;6.38;;;9.90;99.90;;;;;;10064106;28;20029;-65
2022/11/11 23:36:42;;;;;;;12.88;6.10;;;9.80;99.90;;;;;;10075680;28;20045;-65
2022/11/11 23:41:32;;;;;;;9.40;6.03;;;9.70;99.90;;;;;;10069517;28;20026;-66
2022/11/11 23:46:23;;;;;;;11.80;6.35;;;9.80;99.90;;;;;;10082769;28;20039;-65
2022/11/11 23:51:16;;;;;;;10.82;5.60;;;9.90;99.90;;;;;;10083285;28;20380;-64
2022/11/11 23:56:07;;;;;;;8.10;4.97;;;10.00;99.90;;;;;;10086151;28;20051;-65
